Latest Weather Observations for Toowoomba

IDQ60901

Issued at 7:31 pm EST Saturday 29 April 2017 (issued every 10 minutes, with the page automatically refreshed every 10 minutes)

About weather observations | Map of Brisbane area stations | Latest observations for Brisbane area | Other Formats
Station Details ID: 041529 Name: TOOWOOMBA AIRPORT Lat: -27.54 Lon: 151.91 Height: 640.9 m
Data from the previous 72 hours. | See also: Recent months at Toowoomba
Date/Time
EST
Temp
°C
App
Temp
°C
Dew
Point
°C
Rel
Hum
%
Delta-T
°C
Wind Press
QNH
hPa
Press
MSL
hPa
Rain since
9am
mm
Dir  Spd
km/h
Gust
km/h
Spd
kts
Gust
kts
29/07:30pm 15.8 13.2 7.6 58 4.2 S 11 17 6 9 1021.9 1019.5 0.0
29/07:00pm 16.0 13.8 7.7 58 4.3 SSW 9 11 5 6 1021.7 1019.4 0.0
29/06:30pm 16.5 14.3 7.7 56 4.6 SSW 9 13 5 7 1021.5 1019.1 0.0
29/06:00pm 17.2 15.3 7.5 53 5.0 S 7 11 4 6 1021.3 1018.9 0.0
29/05:30pm 17.5 14.7 7.0 50 5.4 SW 11 15 6 8 1021.1 1018.7 0.0
29/05:00pm 19.0 15.4 6.8 45 6.3 SSW 15 20 8 11 1020.8 1018.4 0.0
29/04:30pm 20.1 16.1 6.5 41 7.1 SW 17 22 9 12 1020.4 1018.0 0.0
29/04:00pm 20.6 17.0 6.9 41 7.2 SW 15 20 8 11 1020.3 1017.9 0.0
29/03:30pm 20.9 18.4 8.2 44 6.8 SW 11 17 6 9 1020.1 1017.7 0.0
29/03:00pm 20.6 16.3 6.9 41 7.2 SW 19 30 10 16 1020.1 1017.7 0.0
29/02:30pm 20.5 17.0 7.2 42 7.0 SW 15 24 8 13 1020.3 1017.9 0.0
29/02:00pm 20.2 16.6 6.9 42 6.9 SW 15 22 8 12 1020.6 1018.2 0.0
29/01:30pm 20.3 17.1 7.0 42 7.0 SW 13 19 7 10 1020.8 1018.4 0.0
29/01:00pm 19.7 15.9 7.4 45 6.5 SW 17 26 9 14 1021.0 1018.6 0.0
29/12:30pm 19.8 16.1 7.9 46 6.3 SSW 17 22 9 12 1021.5 1019.1 0.0
29/12:00pm 19.5 15.7 7.6 46 6.3 SW 17 24 9 13 1022.1 1019.7 0.0
29/11:30am 19.0 15.3 6.2 43 6.6 SSW 15 22 8 12 1022.5 1020.1 0.0
29/11:00am 19.0 14.6 4.7 39 7.1 S 17 24 9 13 1022.7 1020.3 0.0
29/10:30am 18.6 14.8 4.0 38 7.2 SSE 13 19 7 10 1023.0 1020.7 0.0
29/10:00am 18.0 14.3 4.2 40 6.7 SSE 13 20 7 11 1023.0 1020.7 0.0
29/09:30am 17.2 14.0 4.9 44 6.1 SSE 11 17 6 9 1023.0 1020.7 0.0
29/09:00am 16.2 12.6 5.2 48 5.4 SSE 13 15 7 8 1023.1 1020.8 0.0
29/08:30am 14.9 12.2 7.5 61 3.8 S 11 15 6 8 1022.8 1020.4 0.0
29/08:00am 13.1 10.1 7.5 69 2.8 S 13 19 7 10 1022.6 1020.2 0.0
29/07:30am 12.5 10.2 7.4 71 2.6 S 9 17 5 9 1022.2 1019.8 0.0
29/07:00am 11.0 9.2 8.1 82 1.5 SSW 7 9 4 5 1021.7 1019.4 0.0
29/06:30am 11.2 8.3 8.1 81 1.6 S 13 17 7 9 1021.1 1018.7 0.0
29/06:00am 10.8 8.8 8.6 86 1.1 SSW 9 13 5 7 1020.7 1018.3 0.0
29/05:30am 10.6 8.8 7.8 83 1.4 SSE 7 9 4 5 1020.4 1018.0 0.0
29/05:00am 11.0 8.9 8.4 84 1.3 SE 9 11 5 6 1019.9 1017.5 0.0
29/04:30am 11.8 9.6 9.4 85 1.3 SSE 11 15 6 8 1019.6 1017.2 0.0
29/04:00am 12.3 9.3 9.1 81 1.7 SSE 15 17 8 9 1019.6 1017.2 0.0
29/03:30am 11.7 9.9 9.3 85 1.2 S 9 11 5 6 1019.6 1017.2 0.0
29/03:00am 12.2 9.7 9.6 84 1.4 SSE 13 15 7 8 1019.7 1017.3 0.0
29/02:30am 11.6 9.4 9.3 86 1.2 S 11 13 6 7 1019.9 1017.5 0.0
29/02:00am 12.2 11.0 9.6 84 1.4 SSE 6 7 3 4 1020.0 1017.6 0.0
29/01:30am 12.6 11.3 9.8 83 1.5 SE 7 9 4 5 1020.3 1017.9 0.0
29/01:00am 13.3 10.9 9.9 80 1.8 S 13 17 7 9 1020.3 1017.9 0.0
29/12:30am 13.6 10.9 10.2 80 1.8 SSE 15 20 8 11 1020.5 1018.1 0.0
29/12:00am 13.7 11.3 10.1 79 1.9 S 13 20 7 11 1020.6 1018.2 0.0
 
Date/Time
EST
Temp
°C
App
Temp
°C
Dew
Point
°C
Rel
Hum
%
Delta-T
°C
Wind Press
QNH
hPa
Press
MSL
hPa
Rain since
9am
mm
Dir  Spd
km/h
Gust
km/h
Spd
kts
Gust
kts
28/11:30pm 14.2 11.1 10.2 77 2.2 S 17 20 9 11 1020.9 1018.5 0.0
28/11:00pm 14.5 11.0 10.1 75 2.4 S 19 24 10 13 1020.9 1018.5 0.0
28/10:30pm 14.5 12.2 10.3 76 2.3 SSW 13 17 7 9 1021.3 1018.9 0.0
28/10:00pm 14.9 12.9 10.3 74 2.5 SSE 11 20 6 11 1021.6 1019.3 0.0
28/09:30pm 15.0 13.1 10.4 74 2.5 SSE 11 15 6 8 1021.9 1019.5 0.0
28/09:00pm 14.7 13.4 10.1 74 2.5 SSW 7 11 4 6 1021.5 1019.1 0.0
28/08:30pm 14.8 13.5 10.0 73 2.6 S 7 11 4 6 1021.2 1018.8 0.0
28/08:00pm 15.4 13.3 9.7 69 3.1 S 11 15 6 8 1021.1 1018.7 0.0
28/07:30pm 15.7 13.6 9.8 68 3.2 S 11 15 6 8 1020.9 1018.5 0.0
28/07:00pm 15.7 14.0 10.0 69 3.1 SSW 9 11 5 6 1020.6 1018.2 0.0
28/06:30pm 16.0 13.9 9.9 67 3.3 S 11 17 6 9 1020.3 1017.9 0.0
28/06:00pm 16.4 13.5 9.6 64 3.7 SSE 15 22 8 12 1019.8 1017.4 0.0
28/05:30pm 16.8 12.8 9.2 61 4.1 SSE 20 28 11 15 1019.4 1017.0 0.0
28/05:00pm 17.2 13.3 9.4 60 4.2 SSE 20 30 11 16 1019.1 1016.7 0.0
28/04:30pm 17.6 12.8 9.0 57 4.6 SSE 24 32 13 17 1018.8 1016.3 0.0
28/04:00pm 17.7 15.0 9.1 57 4.6 ESE 13 17 7 9 1018.7 1016.2 0.0
28/03:30pm 17.9 14.6 9.5 58 4.6 ESE 17 22 9 12 1018.4 1016.0 0.0
28/03:00pm 18.4 15.1 9.7 57 4.7 ESE 17 20 9 11 1018.1 1015.7 0.0
28/02:30pm 18.4 14.5 9.5 56 4.8 SSE 20 28 11 15 1018.0 1015.6 0.0
28/02:00pm 18.4 15.7 8.9 54 5.1 SW 13 20 7 11 1017.9 1015.5 0.0
28/01:30pm 18.7 16.0 8.9 53 5.3 S 13 20 7 11 1017.9 1015.5 0.0
28/01:00pm 18.0 14.8 8.6 54 5.0 WSW 15 22 8 12 1018.2 1015.8 0.0
28/12:30pm 16.7 14.4 7.4 54 4.8 SW 9 13 5 7 1018.7 1016.2 0.0
28/12:00pm 16.3 14.1 7.8 57 4.4 WSW 9 17 5 9 1019.1 1016.7 0.0
28/11:30am 14.8 12.3 8.1 64 3.5 WSW 11 17 6 9 1019.6 1017.2 0.0
28/11:00am 13.9 10.9 7.7 66 3.2 WNW 13 17 7 9 1019.8 1017.4 0.0
28/10:30am 13.6 11.2 7.2 65 3.2 W 9 15 5 8 1019.9 1017.5 0.0
28/10:00am 12.1 10.4 7.6 74 2.3 WSW 6 11 3 6 1020.0 1017.6 0.0
28/09:30am 10.0 7.5 6.5 79 1.7 W 9 13 5 7 1020.5 1018.1 0.0
28/09:00am 8.3 5.8 6.4 88 0.9 W 9 13 5 7 1020.4 1018.0 0.0
28/08:30am 7.1 4.4 5.6 90 0.7 W 9 11 5 6 1020.0 1017.6 0.0
28/08:00am 6.8 4.1 5.7 93 0.5 W 9 11 5 6 1019.7 1017.3 0.0
28/07:30am 5.6 3.2 5.2 97 0.2 W 7 9 4 5 1019.2 1016.8 0.0
28/07:00am 4.9 1.9 4.3 96 0.3 W 9 13 5 7 1018.9 1016.4 0.0
28/06:30am 4.7 1.7 4.3 97 0.2 WSW 9 11 5 6 1018.6 1016.1 0.0
28/06:00am 4.3 1.2 3.7 96 0.3 WNW 9 11 5 6 1018.3 1015.9 0.0
28/05:30am 4.6 1.2 4.0 96 0.3 W 11 13 6 7 1018.0 1015.6 0.0
28/05:00am 4.6 2.0 4.0 96 0.3 W 7 9 4 5 1017.7 1015.3 0.0
28/04:30am 4.8 1.1 4.2 96 0.3 W 13 15 7 8 1017.5 1015.0 0.0
28/04:00am 4.8 1.4 3.8 93 0.4 W 11 13 6 7 1017.2 1014.7 0.0
28/03:30am 5.8 1.7 4.3 90 0.7 WSW 15 17 8 9 1016.7 1014.3 0.0
28/03:00am 6.2 2.5 4.4 88 0.8 SW 13 19 7 10 1016.7 1014.3 0.0
28/02:30am 6.5 2.8 4.5 87 0.9 WSW 13 19 7 10 1017.0 1014.5 0.0
28/02:00am 6.7 2.2 4.4 85 1.0 SW 17 22 9 12 1017.2 1014.7 0.0
28/01:30am 6.7 2.2 4.2 84 1.1 SW 17 22 9 12 1017.8 1015.4 0.0
28/01:00am 6.9 2.4 4.2 83 1.2 SW 17 22 9 12 1018.1 1015.7 0.0
28/12:30am 7.4 3.0 4.5 82 1.3 SW 17 22 9 12 1018.7 1016.2 0.0
28/12:00am 7.4 2.6 4.5 82 1.3 SW 19 24 10 13 1018.8 1016.3 0.0
 
Date/Time
EST
Temp
°C
App
Temp
°C
Dew
Point
°C
Rel
Hum
%
Delta-T
°C
Wind Press
QNH
hPa
Press
MSL
hPa
Rain since
9am
mm
Dir  Spd
km/h
Gust
km/h
Spd
kts
Gust
kts
27/11:30pm 7.5 2.5 4.5 81 1.4 SW 20 26 11 14 1018.9 1016.4 0.0
27/11:00pm 7.5 2.4 4.3 80 1.4 SW 20 28 11 15 1019.0 1016.6 0.0
27/10:30pm 7.5 1.6 3.9 78 1.6 SW 24 32 13 17 1019.1 1016.7 0.0
27/10:00pm 8.0 2.9 4.0 76 1.8 SW 20 28 11 15 1019.1 1016.7 0.0
27/09:30pm 8.3 2.8 3.8 73 2.0 SW 22 32 12 17 1019.1 1016.7 0.0
27/09:00pm 8.4 3.2 3.8 73 2.1 SW 20 28 11 15 1019.0 1016.6 0.0
27/08:30pm 8.6 3.7 4.2 74 2.0 SW 19 24 10 13 1018.8 1016.3 0.0
27/08:00pm 8.9 3.9 4.5 74 2.0 WSW 20 24 11 13 1018.8 1016.3 0.0
27/07:30pm 9.1 4.7 4.9 75 1.9 WSW 17 20 9 11 1018.6 1016.1 0.0
27/07:00pm 9.4 5.0 5.0 74 2.0 SW 17 22 9 12 1018.2 1015.8 0.0
27/06:30pm 10.0 5.3 5.2 72 2.3 SW 19 24 10 13 1017.8 1015.4 0.0
27/06:00pm 10.5 5.6 5.1 69 2.5 WSW 20 26 11 14 1017.4 1014.9 0.0
27/05:30pm 11.3 5.6 5.0 65 3.0 SW 24 32 13 17 1017.0 1014.5 0.0
27/05:00pm 12.1 6.9 5.3 63 3.3 WSW 22 30 12 16 1016.5 1014.1 0.0
27/04:30pm 13.0 6.5 4.9 58 3.9 SW 28 33 15 18 1016.2 1013.8 0.0
27/04:00pm 13.4 7.0 5.3 58 3.9 WSW 28 39 15 21 1016.2 1013.8 0.0
27/03:30pm 13.5 7.0 4.6 55 4.3 WSW 28 37 15 20 1015.9 1013.4 0.0
27/03:00pm 14.1 8.1 5.2 55 4.3 SW 26 33 14 18 1015.5 1013.0 0.0
27/02:30pm 15.6 10.1 6.1 53 4.8 WSW 24 33 13 18 1015.4 1012.9 0.0
27/02:00pm 13.9 8.2 5.0 55 4.3 WSW 24 35 13 19 1015.4 1012.9 0.0
27/01:30pm 14.1 8.6 5.7 57 4.1 WSW 24 33 13 18 1015.5 1013.0 0.0
27/01:00pm 13.4 7.8 5.6 59 3.8 WSW 24 32 13 17 1015.9 1013.4 0.0
27/12:30pm 13.8 8.0 6.2 60 3.8 WSW 26 33 14 18 1016.1 1013.6 0.0
27/12:00pm 13.5 7.8 6.6 63 3.4 SW 26 35 14 19 1016.4 1014.0 0.0
27/11:30am 12.8 6.5 5.7 62 3.5 WSW 28 35 15 19 1016.7 1014.3 0.0
27/11:00am 12.9 7.5 6.5 65 3.2 WSW 24 39 13 21 1017.2 1014.7 0.0
27/10:30am 11.7 6.1 5.3 65 3.1 W 24 35 13 19 1017.5 1015.0 0.0
27/10:00am 11.1 5.9 5.6 69 2.6 WSW 22 32 12 17 1017.5 1015.0 0.0
27/09:30am 10.3 4.7 5.3 71 2.4 WSW 24 32 13 17 1017.5 1015.0 0.0
27/09:00am 9.8 5.1 6.0 77 1.8 WSW 20 28 11 15 1017.2 1014.7 13.6
27/08:30am 8.6 4.0 6.4 86 1.1 WSW 20 26 11 14 1017.1 1014.6 13.6
27/08:27am 8.4 3.8 6.4 87 1.0 WSW 20 28 11 15 1017.1 1014.6 13.6
27/08:00am 7.4 2.0 6.3 93 0.5 WSW 24 33 13 18 1016.6 1014.2 13.6
27/07:42am 7.4 2.8 6.5 94 0.4 WSW 20 32 11 17 1016.4 1014.0 13.6
27/07:30am 7.0 2.3 6.1 94 0.4 WSW 20 28 11 15 1016.1 1013.6 13.6
27/07:00am 6.2 1.9 5.3 94 0.4 WSW 17 28 9 15 1016.0 1013.5 13.6
27/06:30am 5.9 0.6 5.0 94 0.4 WSW 22 30 12 16 1015.5 1013.0 13.6
27/06:00am 6.0 0.6 4.6 91 0.6 WSW 22 28 12 15 1015.4 1012.9 13.6
27/05:30am 6.4 0.3 4.7 89 0.8 WSW 26 37 14 20 1015.0 1012.6 13.6
27/05:00am 6.6 0.8 4.6 87 0.9 WSW 24 33 13 18 1014.9 1012.5 13.6
27/04:30am 7.0 0.8 4.5 84 1.1 WSW 26 35 14 19 1014.8 1012.4 13.6
27/04:00am 7.3 1.1 4.4 82 1.3 WSW 26 32 14 17 1014.7 1012.2 13.6
27/03:30am 7.4 2.0 4.5 82 1.3 WSW 22 30 12 16 1015.0 1012.6 13.6
27/03:00am 7.8 2.4 4.7 81 1.4 WSW 22 30 12 16 1015.1 1012.7 13.6
27/02:30am 8.3 2.7 5.2 81 1.4 WSW 24 30 13 16 1015.3 1012.8 13.6
27/02:00am 8.4 3.9 5.9 84 1.2 W 19 24 10 13 1015.6 1013.1 13.6
27/01:30am 9.4 5.2 5.9 79 1.7 W 17 24 9 13 1015.6 1013.1 13.6
27/01:00am 9.8 5.2 6.3 79 1.7 WSW 20 30 11 16 1015.5 1013.0 13.6
27/12:30am 10.5 4.9 7.2 80 1.6 SW 26 35 14 19 1015.7 1013.2 13.4
27/12:00am 11.2 6.7 8.6 84 1.3 WSW 22 32 12 17 1015.6 1013.1 13.4
 
Date/Time
EST
Temp
°C
App
Temp
°C
Dew
Point
°C
Rel
Hum
%
Delta-T
°C
Wind Press
QNH
hPa
Press
MSL
hPa
Rain since
9am
mm
Dir  Spd
km/h
Gust
km/h
Spd
kts
Gust
kts
26/11:30pm 12.2 7.1 9.2 82 1.6 WSW 26 33 14 18 1015.6 1013.1 13.4
26/11:00pm 13.2 8.6 9.6 79 1.9 WSW 24 32 13 17 1015.4 1012.9 13.4
26/10:30pm 14.0 9.0 9.6 75 2.3 WSW 26 39 14 21 1015.1 1012.7 13.4
26/10:00pm 14.1 10.1 10.5 79 1.9 W 22 32 12 17 1015.0 1012.6 13.4
26/09:30pm 14.5 10.1 11.7 83 1.6 WSW 26 37 14 20 1015.0 1012.6 13.4
26/09:00pm 15.1 11.5 13.0 87 1.2 W 24 32 13 17 1014.9 1012.5 13.4
26/08:30pm 15.6 12.7 14.1 91 0.9 W 22 28 12 15 1014.8 1012.4 13.4
26/08:00pm 16.2 14.2 15.4 95 0.5 W 20 28 11 15 1014.7 1012.2 13.4
26/07:36pm 16.1 14.5 15.9 99 0.1 W 19 28 10 15 1014.3 1011.8 13.4

Latest Capital City Observations: Canberra | Sydney | Melbourne | Brisbane | Adelaide | Perth | Hobart | Darwin

Other Formats:

Comma delimited format used in spreadsheet applications
http://www.bom.gov.au/fwo/IDQ60901/IDQ60901.95551.axf

JavaScript Object Notation format (JSON) in row-major order
http://www.bom.gov.au/fwo/IDQ60901/IDQ60901.95551.json